Flight Track Log - Related Links

Times and Time Zones

All times are in EDT time to prevent confusion due to time zone crossing. See the SAS1207 flight status page for this flight to view local times or setup timezone preferences in your user account.

Time Position Orientation Groundspeed Altitude Reporting Facility
EDT Latitude Longitude Course Direction KTS MPH feet Rate Location/Type
Sat 03:40:32 AM 55.6488 12.6006 315° West  Level Estimated
Sat 03:41:32 AM 55.7065 12.4966 315° West  Level Estimated
Sat 03:42:32 AM 55.7641 12.3923 314° West  Level Estimated
Sat 03:43:32 AM 55.8217 12.2877 314° West  Level Estimated
Sat 03:44:32 AM 55.8792 12.1828 314° West  Level Estimated
Sat 03:45:32 AM 55.9366 12.0775 314° West  Level Estimated
Sat 03:46:32 AM 55.9939 11.9720 314° West  Level Estimated
Sat 03:47:32 AM 56.0511 11.8661 314° West  Level Estimated
Sat 03:48:32 AM 56.1082 11.7599 314° West  Level Estimated
Sat 03:49:32 AM 56.1652 11.6535 314° West  Level Estimated
Sat 03:50:32 AM 56.2221 11.5466 314° West  Level Estimated
Sat 03:51:32 AM 56.2790 11.4395 314° West  Level Estimated
Sat 03:52:32 AM 56.3357 11.3321 314° West  Level Estimated
Sat 03:53:32 AM 56.3924 11.2243 313° West  Level Estimated
Sat 03:54:32 AM 56.4489 11.1162 313° West  Level Estimated
Sat 03:55:32 AM 56.5054 11.0078 313° West  Level Estimated
Sat 03:56:32 AM 56.5618 10.8991 313° West  Level Estimated
Sat 03:57:32 AM 56.6532 10.7217 313° West  Level Estimated
Sat 03:58:32 AM 56.7443 10.5434 313° West  Level Estimated
Sat 03:59:32 AM 56.8352 10.3643 313° West  Level Estimated
Sat 04:00:32 AM 56.9258 10.1844 313° West  Level Estimated
Sat 04:01:32 AM 57.0162 10.0035 312° West  Level Estimated
Sat 04:02:32 AM 57.1063 9.8218 132° Southeast  Level Estimated
Sat 04:03:32 AM 57.0162 10.0035 312° West  Level Estimated
Sat 04:04:32 AM 57.1063 9.8218 132° Southeast  Level Estimated
Sat 04:05:32 AM 57.0162 10.0035 312° West  Level Estimated
Sat 04:06:32 AM 57.1063 9.8218 132° Southeast  Level Estimated
Sat 04:07:32 AM 57.0162 10.0035 312° West  Level Estimated
Sat 04:08:32 AM 57.1063 9.8218 132° Southeast  Level Estimated
Sat 04:09:32 AM 57.0162 10.0035 312° West  Level Estimated
Sat 04:10:32 AM 57.1063 9.8218 132° Southeast  Level Estimated
Sat 04:11:32 AM 57.0162 10.0035 132° Southeast  Level Estimated

Login

Don't have an account? Register now (free) for customized features, flight alerts, and more!